CCM55 LFML-LFKJ
Flight info
| Callsign | CCM55 |
|---|---|
| Flight time | 0h 44m |
| Altitude | 23000 |
| Route | TINOT Z154 RUBAS |
| Aircraft | A20N/M-SDE2E3FGHIRWXY/LB1 |
Departure
| Time | 2026-04-23 17:31 |
|---|---|
| Airport | Marseille Provence Airport (LFML) |
Arrival
| Time | 2026-04-23 18:15 |
|---|---|
| Airport | Ajaccio Napoléon Bonaparte airport (LFKJ) |
| Time | Latitude | Longitude | Altitude | Speed | Heading |
|---|---|---|---|---|---|
| 2026-04-23 17:06 | 43.43816 | 5.22316 | 49 ft | 0 kts | 74° |
| 2026-04-23 17:21 | 43.43814 | 5.22307 | 49 ft | 2 kts | 74° |
| 2026-04-23 17:21 | 43.43807 | 5.22267 | 48 ft | 2 kts | 92° |
| 2026-04-23 17:22 | 43.43809 | 5.22247 | 48 ft | 2 kts | 109° |
| 2026-04-23 17:22 | 43.43827 | 5.22215 | 47 ft | 2 kts | 147° |
| 2026-04-23 17:23 | 43.43844 | 5.22205 | 47 ft | 0 kts | 163° |
| 2026-04-23 17:26 | 43.43785 | 5.22225 | 48 ft | 12 kts | 181° |
| 2026-04-23 17:26 | 43.43742 | 5.22024 | 46 ft | 20 kts | 322° |
| 2026-04-23 17:27 | 43.43973 | 5.21661 | 36 ft | 24 kts | 264° |
| 2026-04-23 17:27 | 43.43937 | 5.21469 | 35 ft | 20 kts | 301° |
| 2026-04-23 17:27 | 43.44037 | 5.21318 | 31 ft | 22 kts | 314° |
| 2026-04-23 17:27 | 43.44149 | 5.21158 | 28 ft | 24 kts | 314° |
| 2026-04-23 17:28 | 43.44263 | 5.20983 | 25 ft | 25 kts | 304° |
| 2026-04-23 17:28 | 43.44364 | 5.20785 | 22 ft | 25 kts | 313° |
| 2026-04-23 17:28 | 43.44490 | 5.20602 | 20 ft | 26 kts | 314° |
| 2026-04-23 17:28 | 43.44616 | 5.20425 | 19 ft | 25 kts | 314° |
| 2026-04-23 17:29 | 43.44671 | 5.20289 | 19 ft | 11 kts | 246° |
| 2026-04-23 17:29 | 43.44613 | 5.20220 | 19 ft | 11 kts | 193° |
| 2026-04-23 17:29 | 43.44500 | 5.20323 | 19 ft | 7 kts | 132° |
| 2026-04-23 17:30 | 43.44473 | 5.20362 | 20 ft | 8 kts | 134° |
| 2026-04-23 17:30 | 43.44020 | 5.20999 | 27 ft | 116 kts | 133° |
| 2026-04-23 17:30 | 43.43307 | 5.22020 | 137 ft | 171 kts | 135° |
| 2026-04-23 17:31 | 43.42475 | 5.23170 | 908 ft | 172 kts | 140° |
| 2026-04-23 17:31 | 43.41524 | 5.24055 | 1882 ft | 164 kts | 151° |
| 2026-04-23 17:31 | 43.40487 | 5.24784 | 2496 ft | 175 kts | 149° |
| 2026-04-23 17:31 | 43.39408 | 5.25665 | 2998 ft | 192 kts | 146° |
| 2026-04-23 17:32 | 43.38218 | 5.26684 | 3522 ft | 209 kts | 144° |
| 2026-04-23 17:32 | 43.36935 | 5.27808 | 3962 ft | 233 kts | 145° |
| 2026-04-23 17:32 | 43.35518 | 5.29052 | 4554 ft | 252 kts | 144° |
| 2026-04-23 17:32 | 43.33992 | 5.30390 | 5248 ft | 266 kts | 144° |
| 2026-04-23 17:33 | 43.32428 | 5.31753 | 6195 ft | 270 kts | 148° |
| 2026-04-23 17:33 | 43.30696 | 5.32683 | 7125 ft | 277 kts | 165° |
| 2026-04-23 17:33 | 43.28760 | 5.32946 | 8074 ft | 282 kts | 175° |
| 2026-04-23 17:33 | 43.26812 | 5.32988 | 8975 ft | 285 kts | 176° |
| 2026-04-23 17:34 | 43.24833 | 5.33008 | 9840 ft | 289 kts | 176° |
| 2026-04-23 17:34 | 43.22820 | 5.33036 | 10655 ft | 294 kts | 176° |
| 2026-04-23 17:34 | 43.18506 | 5.33123 | 11587 ft | 329 kts | 177° |
| 2026-04-23 17:35 | 43.16150 | 5.33178 | 11985 ft | 347 kts | 178° |
| 2026-04-23 17:35 | 43.11057 | 5.33293 | 12650 ft | 384 kts | 178° |
| 2026-04-23 17:35 | 43.08384 | 5.33355 | 13165 ft | 394 kts | 178° |
| 2026-04-23 17:36 | 43.05613 | 5.33415 | 13844 ft | 399 kts | 178° |
| 2026-04-23 17:36 | 43.02858 | 5.33475 | 14507 ft | 403 kts | 178° |
| 2026-04-23 17:36 | 43.00007 | 5.33449 | 15172 ft | 408 kts | 181° |
| 2026-04-23 17:36 | 42.97178 | 5.33279 | 15767 ft | 414 kts | 182° |
| 2026-04-23 17:37 | 42.94295 | 5.33094 | 16367 ft | 419 kts | 182° |
| 2026-04-23 17:37 | 42.91365 | 5.32904 | 16971 ft | 424 kts | 182° |
| 2026-04-23 17:37 | 42.85411 | 5.32519 | 18100 ft | 434 kts | 183° |
| 2026-04-23 17:38 | 42.82376 | 5.32324 | 18642 ft | 439 kts | 183° |
| 2026-04-23 17:38 | 42.79312 | 5.32128 | 19177 ft | 443 kts | 183° |
| 2026-04-23 17:38 | 42.76260 | 5.31974 | 19681 ft | 448 kts | 180° |
| 2026-04-23 17:38 | 42.73165 | 5.32693 | 20139 ft | 454 kts | 159° |
| 2026-04-23 17:39 | 42.70428 | 5.34747 | 20646 ft | 456 kts | 140° |
| 2026-04-23 17:39 | 42.68284 | 5.37932 | 21121 ft | 455 kts | 120° |
| 2026-04-23 17:39 | 42.66994 | 5.41779 | 21607 ft | 452 kts | 105° |
| 2026-04-23 17:39 | 42.66021 | 5.45855 | 22083 ft | 456 kts | 104° |
| 2026-04-23 17:40 | 42.65055 | 5.49944 | 22530 ft | 461 kts | 104° |
| 2026-04-23 17:40 | 42.64061 | 5.54077 | 22979 ft | 465 kts | 104° |
| 2026-04-23 17:40 | 42.63039 | 5.58254 | 23156 ft | 467 kts | 104° |
| 2026-04-23 17:40 | 42.61997 | 5.62448 | 23161 ft | 466 kts | 104° |
| 2026-04-23 17:41 | 42.60959 | 5.66590 | 23161 ft | 467 kts | 105° |
| 2026-04-23 17:41 | 42.58865 | 5.74876 | 23163 ft | 468 kts | 105° |
| 2026-04-23 17:41 | 42.57808 | 5.79042 | 23161 ft | 468 kts | 105° |
| 2026-04-23 17:42 | 42.55681 | 5.87392 | 23161 ft | 468 kts | 105° |
| 2026-04-23 17:42 | 42.54632 | 5.91497 | 23160 ft | 468 kts | 105° |
| 2026-04-23 17:42 | 42.53562 | 5.95679 | 23162 ft | 468 kts | 105° |
| 2026-04-23 17:43 | 42.52492 | 5.99858 | 23161 ft | 468 kts | 105° |
| 2026-04-23 17:43 | 42.51438 | 6.03956 | 23163 ft | 467 kts | 105° |
| 2026-04-23 17:43 | 42.50372 | 6.08102 | 23164 ft | 466 kts | 105° |
| 2026-04-23 17:43 | 42.49305 | 6.12248 | 23158 ft | 465 kts | 105° |
| 2026-04-23 17:44 | 42.48238 | 6.16379 | 23158 ft | 464 kts | 105° |
| 2026-04-23 17:44 | 42.47174 | 6.20498 | 23161 ft | 462 kts | 105° |
| 2026-04-23 17:44 | 42.45074 | 6.28602 | 23157 ft | 458 kts | 105° |
| 2026-04-23 17:45 | 42.44018 | 6.32667 | 23156 ft | 459 kts | 105° |
| 2026-04-23 17:45 | 42.41904 | 6.40783 | 23153 ft | 457 kts | 105° |
| 2026-04-23 17:45 | 42.40843 | 6.44844 | 23153 ft | 458 kts | 105° |
| 2026-04-23 17:46 | 42.38730 | 6.52915 | 23155 ft | 456 kts | 105° |
| 2026-04-23 17:46 | 42.37682 | 6.56903 | 23160 ft | 456 kts | 105° |
| 2026-04-23 17:46 | 42.36631 | 6.60910 | 23158 ft | 454 kts | 105° |
| 2026-04-23 17:47 | 42.35572 | 6.64938 | 23155 ft | 452 kts | 105° |
| 2026-04-23 17:47 | 42.34517 | 6.68936 | 23152 ft | 453 kts | 106° |
| 2026-04-23 17:47 | 42.32405 | 6.76923 | 23159 ft | 451 kts | 107° |
| 2026-04-23 17:48 | 42.31354 | 6.80888 | 23157 ft | 450 kts | 107° |
| 2026-04-23 17:48 | 42.30304 | 6.84839 | 23154 ft | 451 kts | 107° |
| 2026-04-23 17:48 | 42.29250 | 6.88799 | 23153 ft | 450 kts | 107° |
| 2026-04-23 17:48 | 42.28189 | 6.92786 | 23159 ft | 450 kts | 107° |
| 2026-04-23 17:49 | 42.27134 | 6.96744 | 23157 ft | 448 kts | 107° |
| 2026-04-23 17:49 | 42.26082 | 7.00683 | 23156 ft | 448 kts | 107° |
| 2026-04-23 17:49 | 42.25023 | 7.04632 | 23153 ft | 448 kts | 107° |
| 2026-04-23 17:49 | 42.23973 | 7.08546 | 23152 ft | 448 kts | 107° |
| 2026-04-23 17:50 | 42.22914 | 7.12487 | 23153 ft | 447 kts | 107° |
| 2026-04-23 17:50 | 42.20792 | 7.20365 | 23149 ft | 446 kts | 107° |
| 2026-04-23 17:50 | 42.19735 | 7.24276 | 23149 ft | 446 kts | 107° |
| 2026-04-23 17:51 | 42.18673 | 7.28202 | 23149 ft | 446 kts | 107° |
| 2026-04-23 17:51 | 42.17621 | 7.32091 | 23146 ft | 445 kts | 107° |
| 2026-04-23 17:51 | 42.15494 | 7.39922 | 23146 ft | 445 kts | 107° |
| 2026-04-23 17:52 | 42.14449 | 7.43770 | 23145 ft | 443 kts | 107° |
| 2026-04-23 17:52 | 42.12329 | 7.51544 | 23141 ft | 442 kts | 107° |
| 2026-04-23 17:52 | 42.11272 | 7.55409 | 23141 ft | 441 kts | 107° |
| 2026-04-23 17:53 | 42.09161 | 7.63115 | 23092 ft | 439 kts | 107° |
| 2026-04-23 17:53 | 42.08112 | 7.66928 | 22494 ft | 431 kts | 108° |
| 2026-04-23 17:53 | 42.07076 | 7.70690 | 21089 ft | 433 kts | 108° |
| 2026-04-23 17:54 | 42.06033 | 7.74484 | 19812 ft | 440 kts | 108° |
| 2026-04-23 17:54 | 42.04985 | 7.78282 | 19032 ft | 436 kts | 108° |
| 2026-04-23 17:54 | 42.02901 | 7.85807 | 17669 ft | 426 kts | 108° |
| 2026-04-23 17:55 | 42.00851 | 7.93184 | 16237 ft | 417 kts | 108° |
| 2026-04-23 17:55 | 41.99848 | 7.96789 | 15620 ft | 411 kts | 108° |
| 2026-04-23 17:55 | 41.98822 | 8.00294 | 15029 ft | 406 kts | 112° |
| 2026-04-23 17:56 | 41.97349 | 8.03533 | 14449 ft | 404 kts | 124° |
| 2026-04-23 17:56 | 41.93332 | 8.08669 | 13300 ft | 397 kts | 137° |
| 2026-04-23 17:56 | 41.91213 | 8.11027 | 12715 ft | 393 kts | 137° |
| 2026-04-23 17:57 | 41.89132 | 8.13336 | 12119 ft | 389 kts | 137° |
| 2026-04-23 17:57 | 41.87084 | 8.15615 | 11633 ft | 382 kts | 137° |
| 2026-04-23 17:57 | 41.83133 | 8.20019 | 11108 ft | 356 kts | 136° |
| 2026-04-23 17:58 | 41.81274 | 8.22097 | 10878 ft | 344 kts | 136° |
| 2026-04-23 17:58 | 41.79464 | 8.24120 | 10671 ft | 332 kts | 136° |
| 2026-04-23 17:58 | 41.77722 | 8.26066 | 10495 ft | 320 kts | 136° |
| 2026-04-23 17:58 | 41.76045 | 8.27941 | 10334 ft | 308 kts | 136° |
| 2026-04-23 17:59 | 41.74435 | 8.29741 | 10201 ft | 297 kts | 136° |
| 2026-04-23 17:59 | 41.72872 | 8.31487 | 9936 ft | 291 kts | 136° |
| 2026-04-23 17:59 | 41.71317 | 8.33226 | 9562 ft | 290 kts | 136° |
| 2026-04-23 17:59 | 41.69790 | 8.34931 | 9212 ft | 288 kts | 136° |
| 2026-04-23 18:00 | 41.68249 | 8.36646 | 8862 ft | 286 kts | 136° |
| 2026-04-23 18:00 | 41.66724 | 8.38344 | 8513 ft | 284 kts | 136° |
| 2026-04-23 18:00 | 41.65297 | 8.40107 | 8175 ft | 279 kts | 127° |
| 2026-04-23 18:00 | 41.64175 | 8.42188 | 8040 ft | 274 kts | 116° |
| 2026-04-23 18:01 | 41.63248 | 8.44411 | 8069 ft | 276 kts | 114° |
| 2026-04-23 18:01 | 41.62439 | 8.46729 | 8080 ft | 273 kts | 100° |
| 2026-04-23 18:01 | 41.62434 | 8.49196 | 8093 ft | 266 kts | 72° |
| 2026-04-23 18:01 | 41.63255 | 8.51371 | 8127 ft | 262 kts | 53° |
| 2026-04-23 18:02 | 41.63952 | 8.52645 | 8131 ft | 254 kts | 53° |
| 2026-04-23 18:02 | 41.65271 | 8.55090 | 8131 ft | 233 kts | 53° |
| 2026-04-23 18:02 | 41.66207 | 8.56748 | 8119 ft | 218 kts | 43° |
| 2026-04-23 18:02 | 41.67465 | 8.57701 | 8106 ft | 204 kts | 14° |
| 2026-04-23 18:03 | 41.68850 | 8.58039 | 8208 ft | 193 kts | 11° |
| 2026-04-23 18:03 | 41.70119 | 8.58330 | 8163 ft | 176 kts | 12° |
| 2026-04-23 18:03 | 41.71251 | 8.58596 | 8146 ft | 156 kts | 12° |
| 2026-04-23 18:03 | 41.72300 | 8.58846 | 8141 ft | 151 kts | 13° |
| 2026-04-23 18:04 | 41.73338 | 8.59102 | 8008 ft | 152 kts | 13° |
| 2026-04-23 18:04 | 41.74379 | 8.59359 | 7795 ft | 150 kts | 13° |
| 2026-04-23 18:04 | 41.75396 | 8.59611 | 7608 ft | 150 kts | 13° |
| 2026-04-23 18:04 | 41.76434 | 8.59868 | 7414 ft | 150 kts | 12° |
| 2026-04-23 18:05 | 41.77460 | 8.60122 | 7223 ft | 150 kts | 12° |
| 2026-04-23 18:05 | 41.78484 | 8.60375 | 7035 ft | 149 kts | 12° |
| 2026-04-23 18:05 | 41.79508 | 8.60629 | 6843 ft | 149 kts | 12° |
| 2026-04-23 18:05 | 41.80528 | 8.60883 | 6651 ft | 150 kts | 12° |
| 2026-04-23 18:06 | 41.81549 | 8.61136 | 6464 ft | 150 kts | 12° |
| 2026-04-23 18:06 | 41.82577 | 8.61391 | 6280 ft | 150 kts | 12° |
| 2026-04-23 18:06 | 41.83599 | 8.61644 | 6092 ft | 149 kts | 12° |
| 2026-04-23 18:06 | 41.84611 | 8.61895 | 5909 ft | 149 kts | 12° |
| 2026-04-23 18:07 | 41.85632 | 8.62149 | 5715 ft | 149 kts | 12° |
| 2026-04-23 18:07 | 41.86656 | 8.62404 | 5523 ft | 149 kts | 12° |
| 2026-04-23 18:07 | 41.87672 | 8.62657 | 5334 ft | 149 kts | 12° |
| 2026-04-23 18:07 | 41.88698 | 8.62911 | 5147 ft | 149 kts | 12° |
| 2026-04-23 18:08 | 41.89374 | 8.63079 | 5023 ft | 149 kts | 12° |
| 2026-04-23 18:08 | 41.90718 | 8.63412 | 4779 ft | 148 kts | 12° |
| 2026-04-23 18:08 | 41.91740 | 8.63666 | 4593 ft | 147 kts | 12° |
| 2026-04-23 18:08 | 41.92738 | 8.63914 | 4419 ft | 147 kts | 12° |
| 2026-04-23 18:09 | 41.93750 | 8.64167 | 4237 ft | 147 kts | 12° |
| 2026-04-23 18:09 | 41.94751 | 8.64417 | 4052 ft | 147 kts | 11° |
| 2026-04-23 18:09 | 41.95764 | 8.64670 | 3868 ft | 147 kts | 11° |
| 2026-04-23 18:09 | 41.96764 | 8.64919 | 3688 ft | 147 kts | 11° |
| 2026-04-23 18:10 | 41.97774 | 8.65170 | 3506 ft | 146 kts | 12° |
| 2026-04-23 18:10 | 41.98772 | 8.65419 | 3324 ft | 146 kts | 12° |
| 2026-04-23 18:10 | 41.99696 | 8.65946 | 3113 ft | 146 kts | 38° |
| 2026-04-23 18:10 | 42.00320 | 8.66992 | 3011 ft | 146 kts | 64° |
| 2026-04-23 18:11 | 42.00536 | 8.68340 | 3007 ft | 150 kts | 90° |
| 2026-04-23 18:11 | 42.00402 | 8.69726 | 3015 ft | 149 kts | 98° |
| 2026-04-23 18:11 | 42.00220 | 8.71046 | 2992 ft | 138 kts | 99° |
| 2026-04-23 18:11 | 42.00043 | 8.72311 | 2994 ft | 137 kts | 99° |
| 2026-04-23 18:12 | 41.99868 | 8.73569 | 2911 ft | 138 kts | 98° |
| 2026-04-23 18:12 | 41.99700 | 8.74816 | 2680 ft | 136 kts | 98° |
| 2026-04-23 18:12 | 41.99534 | 8.76065 | 2462 ft | 135 kts | 98° |
| 2026-04-23 18:12 | 41.99371 | 8.77306 | 2248 ft | 135 kts | 98° |
| 2026-04-23 18:13 | 41.99210 | 8.78538 | 2035 ft | 134 kts | 98° |
| 2026-04-23 18:13 | 41.99050 | 8.79753 | 1827 ft | 134 kts | 98° |
| 2026-04-23 18:13 | 41.98860 | 8.80976 | 1613 ft | 134 kts | 110° |
| 2026-04-23 18:13 | 41.98350 | 8.82025 | 1398 ft | 135 kts | 137° |
| 2026-04-23 18:14 | 41.97550 | 8.82667 | 1191 ft | 134 kts | 163° |
| 2026-04-23 18:14 | 41.96640 | 8.82792 | 986 ft | 132 kts | 187° |
| 2026-04-23 18:14 | 41.95772 | 8.82428 | 789 ft | 130 kts | 204° |
| 2026-04-23 18:14 | 41.94957 | 8.81915 | 586 ft | 128 kts | 205° |
| 2026-04-23 18:15 | 41.94168 | 8.81391 | 390 ft | 127 kts | 207° |
| 2026-04-23 18:15 | 41.93376 | 8.80870 | 173 ft | 125 kts | 205° |
| 2026-04-23 18:15 | 41.92602 | 8.80379 | 31 ft | 117 kts | 204° |
| 2026-04-23 18:15 | 41.92136 | 8.80088 | 28 ft | 36 kts | 206° |
| 2026-04-23 18:16 | 41.91920 | 8.79951 | 28 ft | 29 kts | 206° |
| 2026-04-23 18:16 | 41.91750 | 8.79845 | 28 ft | 25 kts | 205° |
| 2026-04-23 18:16 | 41.91599 | 8.79751 | 28 ft | 22 kts | 206° |
| 2026-04-23 18:17 | 41.91326 | 8.79584 | 29 ft | 19 kts | 205° |
| 2026-04-23 18:17 | 41.91245 | 8.79476 | 29 ft | 16 kts | 271° |
| 2026-04-23 18:17 | 41.91317 | 8.79379 | 29 ft | 15 kts | 335° |
| 2026-04-23 18:17 | 41.91423 | 8.79337 | 29 ft | 17 kts | 0° |
| 2026-04-23 18:18 | 41.91553 | 8.79392 | 29 ft | 21 kts | 25° |
| 2026-04-23 18:18 | 41.91686 | 8.79476 | 29 ft | 17 kts | 25° |
| 2026-04-23 18:18 | 41.91760 | 8.79496 | 28 ft | 8 kts | 329° |
| 2026-04-23 18:18 | 41.91792 | 8.79470 | 29 ft | 4 kts | 339° |
| 2026-04-23 18:19 | 41.91809 | 8.79464 | 29 ft | 0 kts | 346° |